Metar Cercanos

 

LEPA - Palma De Mallorc, Spain
Distance from station: ONO 38km
Actualización: Mon, 25-Jan-2021 1:30pm CET
Few Clouds
Few Clouds
 Viento del OSO
Viento: OSO 26 km/h
Temperatura: 16°C
Rocío: 12°C
Humedad: 77%
Barómetro: 1009 hPa
Clouds: Few Clouds
Visibility: 10 km
Cloud details: Few Clouds 762 m
2021/01/25 12:30 LEPA 251230Z 24014KT 210V270 9999 FEW025 16/12 Q1009 NOSIG
LEMH - Mahon/Menorca Is, Spain
Distance from station: ENE 105km
Actualización: Mon, 25-Jan-2021 1:30pm CET
Few Clouds
Few Clouds
 Viento del OSO
Viento: OSO 24 km/h
Temperatura: 14°C
Rocío: 10°C
Humedad: 77%
Barómetro: 1008 hPa
Clouds: Few Clouds
Visibility: 10 km
Cloud details: Few Clouds 1219 m
2021/01/25 12:30 LEMH 251230Z 25013KT 210V290 9999 FEW040 14/10 Q1008
 
LEIB - Ibiza/Es Codola, Spain
Distance from station: OSO 165km
Actualización: Mon, 25-Jan-2021 1:30pm CET
Few Clouds
Few Clouds
 Viento del SO
Viento: SO 22 km/h
Temperatura: 17°C
Rocío: 11°C
Humedad: 68%
Barómetro: 1010 hPa
Clouds: Few Clouds
Visibility: 10 km
Cloud details: Few Clouds 1067 m
2021/01/25 12:30 LEIB 251230Z 23012KT 9999 FEW035 17/11 Q1010 NOSIG
LEBL - Barcelona Airpor, Spain
Distance from station: NNO 225km
Actualización: Mon, 25-Jan-2021 1:30pm CET
Muy nuboso
Muy nuboso
 Viento del OSO
Viento: OSO 22 km/h
Temperatura: 13°C
Rocío: 8°C
Humedad: 72%
Barómetro: 1007 hPa
Clouds: Muy nuboso
Visibility: 10 km
Cloud details: Few Clouds 914 m
Muy nuboso 1372 m
2021/01/25 12:30 LEBL 251230Z 24012KT 9999 FEW030 BKN045 13/08 Q1007 NOSIG
 
LEVC - Valencia (civ/Mi, Spain
Distance from station: NO 188km
Actualización: Mon, 25-Jan-2021 1:30pm CET
Few Clouds
Few Clouds
 Viento del O
Viento: O 41 km/h, Racha: 67 km/h
Temperatura: 18°C
Rocío: 11°C
Humedad: 64%
Barómetro: 1009 hPa
Clouds: Few Clouds
Visibility: 10 km
Cloud details: Few Clouds 762 m
2021/01/25 12:30 LEVC 251230Z 26022G36KT 220V290 9999 FEW025 18/11 Q1009 NOSIG
LEGE - Gerona/Costa Bra, Spain
Distance from station: N 276km
Actualización: Mon, 25-Jan-2021 1:30pm CET
Parcialmente nuboso
Parcialmente nuboso
 Viento del NE
Viento: NE 9 km/h
Temperatura: 12°C
Rocío: 4°C
Humedad: 58%
Barómetro: 1007 hPa
Clouds: Parcialmente nuboso
Visibility: 10 km
Cloud details: Parcialmente nuboso 1219 m
2021/01/25 12:30 LEGE 251230Z 04005KT 350V080 9999 SCT040 12/04 Q1007
 
LEAL - Alicante/El Alte, Spain
Distance from station: OSO 344km
Actualización: Mon, 25-Jan-2021 1:30pm CET
Muy nuboso
Muy nuboso
 Viento del SSO
Viento: SSO 19 km/h
Temperatura: 20°C
Rocío: 7°C
Humedad: 43%
Barómetro: 1012 hPa
Clouds: Muy nuboso
Visibility: 10 km
Cloud details: Few Clouds 1067 m
Muy nuboso 1737 m
2021/01/25 12:30 LEAL 251230Z 21010KT 170V240 9999 FEW035 BKN057 20/07 Q1012 NOSIG
LEAM - Almeria Airport, Spain
Distance from station: SSO 56km
Actualización: Mon, 25-Jan-2021 1:30pm CET
Few Clouds
Few Clouds
 Viento del SO
Viento: SO 19 km/h
Temperatura: 17°C
Rocío: 13°C
Humedad: 77%
Barómetro: 1014 hPa
Clouds: Few Clouds
Visibility: 10 km
Cloud details: Few Clouds 1524 m
2021/01/25 12:30 LEAM 251230Z 23010KT 9999 FEW050 17/13 Q1014
 
LEZG - Zaragoza (mil/Ci, Spain
Distance from station: NO 431km
Actualización: Mon, 25-Jan-2021 1:30pm CET
Lluvia débil, Mist, Muy nuboso
Lluvia débil, Mist, Muy nuboso
 Viento del O
Viento: O 15 km/h
Temperatura: 9°C
Sensación frio: 7°C
Rocío: 8°C
Humedad: 94%
Barómetro: 1010 hPa
Resumen: Lluvia débil, Mist
Clouds: Muy nuboso
Visibility: 5 km
Cloud details: Parcialmente nuboso 152 m
Parcialmente nuboso 427 m
Muy nuboso 762 m
2021/01/25 12:30 LEZG 251230Z 28008KT 4500 -RA BR SCT005 SCT014 BKN025 09/08 Q1010 RERA
LEMD - Madrid/Barajas, Spain
Distance from station: ONO 234km
Actualización: Mon, 25-Jan-2021 1:30pm CET
Lluvia débil, Muy nuboso
Lluvia débil, Muy nuboso
 Viento del SO
Viento: SO 28 km/h
Temperatura: 12°C
Rocío: 11°C
Humedad: 94%
Barómetro: 1011 hPa
Resumen: Lluvia débil
Clouds: Muy nuboso
Visibility: 6 km
Cloud details: Few Clouds 457 m
Muy nuboso 1524 m
2021/01/25 12:30 LEMD 251230Z 23015KT 6000 -RA FEW015 BKN050 12/11 Q1011 NOSIG
 
LEGR - Granada Airport, Spain
Distance from station: OSO 62km
Actualización: Mon, 25-Jan-2021 1:30pm CET
Light drizzle, Muy nuboso
Light drizzle, Muy nuboso
 Viento del O
Viento: O 7 km/h
Temperatura: 13°C
Rocío: 12°C
Humedad: 94%
Barómetro: 1019 hPa
Resumen: Light Drizzle
Clouds: Muy nuboso
Visibility: 9 km
Cloud details: Few Clouds 152 m
Parcialmente nuboso 549 m
Muy nuboso 762 m
2021/01/25 12:30 LEGR 251230Z 26004KT 230V290 9000 -DZ FEW005 SCT018 BKN025 13/12 Q1019
LEMG - Malaga (civ/Mil), Spain
Distance from station: OSO 227km
Actualización: Mon, 25-Jan-2021 1:30pm CET
Parcialmente nuboso
Parcialmente nuboso
 Viento del varies
Viento: varies 2 km/h
Temperatura: 19°C
Rocío: 13°C
Humedad: 68%
Barómetro: 1018 hPa
Clouds: Parcialmente nuboso
Visibility: 10 km
Cloud details: Parcialmente nuboso 1372 m
2021/01/25 12:30 LEMG 251230Z VRB01KT 9999 SCT045 19/13 Q1018 NOSIG
 
LEZL - Sevilla (civ/Mil, Spain
Distance from station: S 318km
Actualización: Mon, 25-Jan-2021 1:30pm CET
Muy nuboso
Muy nuboso
 Viento del OSO
Viento: OSO 19 km/h
Temperatura: 17°C
Rocío: 15°C
Humedad: 88%
Barómetro: 1018 hPa
Clouds: Muy nuboso
Visibility: 10 km
Cloud details: Muy nuboso 396 m
Muy nuboso 792 m
2021/01/25 12:30 LEZL 251230Z 24010KT 9999 BKN013 BKN026 17/15 Q1018 NOSIG
LEVT - Vitoria, Spain
Distance from station: NO 226km
Actualización: Mon, 25-Jan-2021 1:30pm CET
Muy nuboso
Muy nuboso
 Viento del NO
Viento: NO 13 km/h
Temperatura: 8°C
Sensación frio: 6°C
Rocío: 6°C
Humedad: 87%
Barómetro: 1011 hPa
Clouds: Muy nuboso
Visibility: 10 km
Cloud details: Few Clouds 366 m
Parcialmente nuboso 610 m
Muy nuboso 1372 m
2021/01/25 12:30 LEVT 251230Z 32007KT 9999 FEW012 SCT020 BKN045 08/06 Q1011
 
LEBB - Bilbao/Sondica, Spain
Distance from station: NNO 235km
Actualización: Mon, 25-Jan-2021 1:30pm CET
Lluvia débil, Mist, Muy nuboso
Lluvia débil, Mist, Muy nuboso
 Viento del NNE
Viento: NNE 9 km/h
Temperatura: 10°C
Sensación frio: 9°C
Rocío: 10°C
Humedad: 100%
Barómetro: 1012 hPa
Resumen: Lluvia débil, Mist
Clouds: Muy nuboso
Visibility: 3 km
Cloud details: Parcialmente nuboso 183 m
Parcialmente nuboso 305 m
Muy nuboso 732 m
2021/01/25 12:30 LEBB 251230Z 02005KT 330V050 3000 -RA BR SCT006 SCT010 BKN024 10/10 Q1012 TEMPO 6000 NSW
LESO - San Sebastian/Fu, Spain
Distance from station: N 231km
Actualización: Mon, 25-Jan-2021 1:30pm CET
Lluvia débil, Muy nuboso
Lluvia débil, Muy nuboso
 Viento del ENE
Viento: ENE 11 km/h
Temperatura: 9°C
Sensación frio: 7°C
Rocío: 9°C
Humedad: 100%
Barómetro: 1012 hPa
Resumen: Lluvia débil
Clouds: Muy nuboso
Visibility: 3 km
Cloud details: Parcialmente nuboso 152 m
Muy nuboso 427 m
Muy nuboso 732 m
2021/01/25 12:30 LESO 251230Z 07006KT 3000 -RA SCT005 BKN014 BKN024 09/09 Q1012
 
LEVD - Valladolid(Mil/C, Spain
Distance from station: ONO 239km
Actualización: Mon, 25-Jan-2021 1:30pm CET
Cubierto
Cubierto
 Viento del O
Viento: O 41 km/h
Temperatura: 11°C
Rocío: 10°C
Humedad: 94%
Barómetro: 1010 hPa
Clouds: Cubierto
Visibility: 9 km
Cloud details: Muy nuboso 213 m
Cubierto 305 m
2021/01/25 12:30 LEVD 251230Z 26022KT 9000 BKN007 OVC010 11/10 Q1010
LESA - Salamanca (civ/M, Spain
Distance from station: ONO 349km
Actualización: Mon, 25-Jan-2021 1:30pm CET
Lluvia débil, Cubierto
Lluvia débil, Cubierto
 Viento del O
Viento: O 33 km/h, Racha: 54 km/h
Temperatura: 11°C
Rocío: 10°C
Humedad: 94%
Barómetro: 1012 hPa
Resumen: Lluvia débil
Clouds: Cubierto
Visibility: 2 km
Cloud details: Muy nuboso 244 m
Cubierto 518 m
2021/01/25 12:30 LESA 251230Z 27018G29KT 240V300 1500 -RA BKN008 OVC017 11/10 Q1012
 
LEXJ - Santander/Paraya, Spain
Distance from station: NNO 247km
Actualización: Mon, 25-Jan-2021 1:30pm CET
Lluvia débil, Mist, Cubierto
Lluvia débil, Mist, Cubierto
 Viento del varies
Viento: varies 4 km/h
Temperatura: 10°C
Rocío: 10°C
Humedad: 100%
Barómetro: 1013 hPa
Resumen: Lluvia débil, Mist
Clouds: Cubierto
Visibility: 2 km
Cloud details: Cubierto 396 m
2021/01/25 12:30 LEXJ 251230Z VRB02KT 2000 -RA BR OVC013 10/10 Q1013
LEAS - Asturias/Aviles, Spain
Distance from station: NO 214km
Actualización: Mon, 25-Jan-2021 1:30pm CET
Muy nuboso
Muy nuboso
 Viento del varies
Viento: varies 4 km/h
Temperatura: 10°C
Rocío: 9°C
Humedad: 94%
Barómetro: 1013 hPa
Clouds: Muy nuboso
Visibility: 10 km
Cloud details: Few Clouds 183 m
Muy nuboso 701 m
Muy nuboso 975 m
2021/01/25 12:30 LEAS 251230Z VRB02KT 9999 4100S FEW006 BKN023 BKN032 10/09 Q1013 TEMPO 3000 RA
 
LECO - La Coruna/Alvedr, Spain
Distance from station: ONO 222km
Actualización: Mon, 25-Jan-2021 1:30pm CET
Muy nuboso
Muy nuboso
 Viento del varies
Viento: varies 2 km/h
Temperatura: 12°C
Rocío: 12°C
Humedad: 100%
Barómetro: 1012 hPa
Clouds: Muy nuboso
Visibility: 9 km
Cloud details: Few Clouds 122 m
Muy nuboso 274 m
2021/01/25 12:30 LECO 251230Z VRB01KT 9000 FEW004 BKN009 12/12 Q1012 TEMPO 3000 -RA SCT010
LEVX - Vigo/Peinador, Spain
Distance from station: O 214km
Actualización: Mon, 25-Jan-2021 1:30pm CET
Lluvia, Niebla, Cubierto
Lluvia, Niebla, Cubierto
 Viento del O
Viento: O 9 km/h
Temperatura: 13°C
Rocío: 13°C
Humedad: 100%
Barómetro: 1013 hPa
Resumen: Lluvia, Niebla
Clouds: Cubierto
Visibility: 1 km
Cloud details: Cubierto 91 m
2021/01/25 12:30 LEVX 251230Z 26005KT 200V320 0900 R19/1700N R01/0900U RA FG OVC003 13/13 Q1013 NOSIG